sensor_id;sensor_type;location;lat;lon;timestamp;pressure;altitude;pressure_sealevel;temperature;humidity
21011;BME280;10663;42.714;23.274;2023-06-10T00:00:38;94401.81;;;20.90;68.92
21011;BME280;10663;42.714;23.274;2023-06-10T00:02:11;94399.91;;;21.15;68.16
21011;BME280;10663;42.714;23.274;2023-06-10T00:03:42;94399.13;;;21.27;68.01
21011;BME280;10663;42.714;23.274;2023-06-10T00:05:15;94401.00;;;21.51;66.91
21011;BME280;10663;42.714;23.274;2023-06-10T00:06:46;94395.50;;;21.47;66.58
21011;BME280;10663;42.714;23.274;2023-06-10T00:08:18;94393.69;;;21.51;66.42
21011;BME280;10663;42.714;23.274;2023-06-10T00:09:50;94392.06;;;21.75;65.90
21011;BME280;10663;42.714;23.274;2023-06-10T00:11:22;94390.84;;;21.72;65.81
21011;BME280;10663;42.714;23.274;2023-06-10T00:12:53;94377.06;;;21.89;64.97
21011;BME280;10663;42.714;23.274;2023-06-10T00:14:23;94380.53;;;22.02;64.32
21011;BME280;10663;42.714;23.274;2023-06-10T00:15:54;94385.16;;;22.17;64.10
21011;BME280;10663;42.714;23.274;2023-06-10T00:17:25;94383.59;;;22.16;64.29
21011;BME280;10663;42.714;23.274;2023-06-10T00:19:02;94381.66;;;22.01;64.76
21011;BME280;10663;42.714;23.274;2023-06-10T00:20:34;94388.63;;;22.02;64.91
21011;BME280;10663;42.714;23.274;2023-06-10T00:22:06;94387.56;;;22.07;64.79
21011;BME280;10663;42.714;23.274;2023-06-10T00:23:37;94383.78;;;22.23;64.33
21011;BME280;10663;42.714;23.274;2023-06-10T00:25:08;94380.28;;;22.23;63.71
21011;BME280;10663;42.714;23.274;2023-06-10T00:26:39;94389.63;;;21.97;65.01
21011;BME280;10663;42.714;23.274;2023-06-10T00:28:11;94385.69;;;21.95;64.91
21011;BME280;10663;42.714;23.274;2023-06-10T00:29:42;94388.03;;;22.09;64.89
21011;BME280;10663;42.714;23.274;2023-06-10T00:31:13;94389.25;;;22.11;64.56
21011;BME280;10663;42.714;23.274;2023-06-10T00:32:44;94383.16;;;22.14;64.43
21011;BME280;10663;42.714;23.274;2023-06-10T00:34:14;94381.78;;;22.20;64.45
21011;BME280;10663;42.714;23.274;2023-06-10T00:35:45;94388.78;;;21.81;65.60
21011;BME280;10663;42.714;23.274;2023-06-10T00:37:16;94388.78;;;21.81;65.83
21011;BME280;10663;42.714;23.274;2023-06-10T00:38:47;94382.00;;;21.87;65.88
21011;BME280;10663;42.714;23.274;2023-06-10T00:40:18;94381.00;;;21.92;65.46
21011;BME280;10663;42.714;23.274;2023-06-10T00:41:48;94381.38;;;21.78;66.07
21011;BME280;10663;42.714;23.274;2023-06-10T00:43:19;94380.34;;;21.43;67.71
21011;BME280;10663;42.714;23.274;2023-06-10T00:44:51;94385.97;;;21.78;66.71
21011;BME280;10663;42.714;23.274;2023-06-10T00:46:22;94377.84;;;21.62;66.52
21011;BME280;10663;42.714;23.274;2023-06-10T00:47:55;94391.44;;;21.65;67.00
21011;BME280;10663;42.714;23.274;2023-06-10T00:49:26;94383.69;;;21.64;66.62
21011;BME280;10663;42.714;23.274;2023-06-10T00:50:57;94384.66;;;21.72;66.76
21011;BME280;10663;42.714;23.274;2023-06-10T00:52:29;94389.25;;;21.71;66.53
21011;BME280;10663;42.714;23.274;2023-06-10T00:54:00;94393.94;;;21.46;67.52
21011;BME280;10663;42.714;23.274;2023-06-10T00:55:32;94389.69;;;21.45;67.66
21011;BME280;10663;42.714;23.274;2023-06-10T00:57:04;94394.47;;;21.64;67.03
21011;BME280;10663;42.714;23.274;2023-06-10T00:58:35;94390.38;;;21.70;66.80
21011;BME280;10663;42.714;23.274;2023-06-10T01:00:06;94397.94;;;21.64;67.04
21011;BME280;10663;42.714;23.274;2023-06-10T01:01:38;94400.25;;;21.78;66.34
21011;BME280;10663;42.714;23.274;2023-06-10T01:03:09;94398.28;;;21.91;65.81
21011;BME280;10663;42.714;23.274;2023-06-10T01:04:40;94403.59;;;21.47;67.63
21011;BME280;10663;42.714;23.274;2023-06-10T01:08:09;94401.91;;;21.43;68.11
21011;BME280;10663;42.714;23.274;2023-06-10T01:09:54;94406.72;;;21.49;68.13
21011;BME280;10663;42.714;23.274;2023-06-10T01:11:30;94404.84;;;21.25;68.93
21011;BME280;10663;42.714;23.274;2023-06-10T01:13:10;94406.25;;;21.59;68.39
21011;BME280;10663;42.714;23.274;2023-06-10T01:14:42;94396.38;;;21.63;68.21
21011;BME280;10663;42.714;23.274;2023-06-10T01:16:15;94396.56;;;21.71;68.38
21011;BME280;10663;42.714;23.274;2023-06-10T01:17:59;94405.97;;;21.24;69.77
21011;BME280;10663;42.714;23.274;2023-06-10T01:19:34;94396.31;;;21.36;69.54
21011;BME280;10663;42.714;23.274;2023-06-10T01:21:07;94400.47;;;21.33;69.79
21011;BME280;10663;42.714;23.274;2023-06-10T01:22:38;94397.50;;;21.50;69.72
21011;BME280;10663;42.714;23.274;2023-06-10T01:24:08;94394.16;;;21.41;69.81
21011;BME280;10663;42.714;23.274;2023-06-10T01:25:47;94399.19;;;21.55;69.19
21011;BME280;10663;42.714;23.274;2023-06-10T01:27:21;94398.94;;;21.60;69.32
21011;BME280;10663;42.714;23.274;2023-06-10T01:29:00;94396.59;;;21.58;69.21
21011;BME280;10663;42.714;23.274;2023-06-10T01:32:15;94392.09;;;21.62;69.66
21011;BME280;10663;42.714;23.274;2023-06-10T01:33:48;94393.34;;;21.65;69.58
21011;BME280;10663;42.714;23.274;2023-06-10T01:35:21;94393.28;;;21.37;70.76
21011;BME280;10663;42.714;23.274;2023-06-10T01:36:54;94390.78;;;21.44;70.71
21011;BME280;10663;42.714;23.274;2023-06-10T01:38:27;94387.69;;;21.70;69.70
21011;BME280;10663;42.714;23.274;2023-06-10T01:40:01;94394.31;;;21.73;69.76
21011;BME280;10663;42.714;23.274;2023-06-10T01:41:36;94391.47;;;21.81;69.44
21011;BME280;10663;42.714;23.274;2023-06-10T01:43:08;94382.78;;;22.00;68.74
21011;BME280;10663;42.714;23.274;2023-06-10T01:44:39;94373.84;;;21.84;68.69
21011;BME280;10663;42.714;23.274;2023-06-10T01:46:12;94376.47;;;21.96;68.37
21011;BME280;10663;42.714;23.274;2023-06-10T01:47:43;94373.94;;;22.15;68.62
21011;BME280;10663;42.714;23.274;2023-06-10T01:49:14;94381.50;;;22.10;69.13
21011;BME280;10663;42.714;23.274;2023-06-10T01:50:47;94375.25;;;21.93;70.17
21011;BME280;10663;42.714;23.274;2023-06-10T01:52:18;94378.16;;;22.00;69.91
21011;BME280;10663;42.714;23.274;2023-06-10T01:53:49;94381.53;;;21.97;69.29
21011;BME280;10663;42.714;23.274;2023-06-10T01:55:19;94374.19;;;22.10;69.36
21011;BME280;10663;42.714;23.274;2023-06-10T01:56:50;94374.34;;;22.01;69.46
21011;BME280;10663;42.714;23.274;2023-06-10T01:58:21;94370.88;;;21.89;69.70
21011;BME280;10663;42.714;23.274;2023-06-10T01:59:52;94368.38;;;21.96;69.90
21011;BME280;10663;42.714;23.274;2023-06-10T02:01:22;94371.34;;;21.91;69.79
21011;BME280;10663;42.714;23.274;2023-06-10T02:02:53;94365.94;;;22.03;69.52
21011;BME280;10663;42.714;23.274;2023-06-10T02:04:24;94368.47;;;22.12;68.79
21011;BME280;10663;42.714;23.274;2023-06-10T02:05:56;94365.31;;;22.10;68.54
21011;BME280;10663;42.714;23.274;2023-06-10T02:07:26;94368.25;;;22.05;67.31
21011;BME280;10663;42.714;23.274;2023-06-10T02:08:57;94360.38;;;22.12;67.86
21011;BME280;10663;42.714;23.274;2023-06-10T02:10:28;94364.38;;;22.18;67.18
21011;BME280;10663;42.714;23.274;2023-06-10T02:12:02;94362.03;;;22.16;67.67
21011;BME280;10663;42.714;23.274;2023-06-10T02:13:33;94364.81;;;22.20;67.56
21011;BME280;10663;42.714;23.274;2023-06-10T02:15:04;94361.00;;;22.36;66.93
21011;BME280;10663;42.714;23.274;2023-06-10T02:16:35;94366.91;;;22.42;66.89
21011;BME280;10663;42.714;23.274;2023-06-10T02:18:06;94369.72;;;22.46;66.97
21011;BME280;10663;42.714;23.274;2023-06-10T02:19:36;94356.91;;;22.43;67.03
21011;BME280;10663;42.714;23.274;2023-06-10T02:21:07;94362.31;;;22.43;66.83
21011;BME280;10663;42.714;23.274;2023-06-10T02:22:38;94352.91;;;22.36;67.48
21011;BME280;10663;42.714;23.274;2023-06-10T02:24:08;94358.75;;;22.38;67.58
21011;BME280;10663;42.714;23.274;2023-06-10T02:25:40;94351.34;;;22.35;67.31
21011;BME280;10663;42.714;23.274;2023-06-10T02:27:11;94352.91;;;22.36;66.99
21011;BME280;10663;42.714;23.274;2023-06-10T02:28:42;94347.16;;;22.38;66.65
21011;BME280;10663;42.714;23.274;2023-06-10T02:30:13;94351.00;;;22.53;66.20
21011;BME280;10663;42.714;23.274;2023-06-10T02:31:44;94352.13;;;22.52;66.83
21011;BME280;10663;42.714;23.274;2023-06-10T02:33:15;94352.56;;;22.38;67.00
21011;BME280;10663;42.714;23.274;2023-06-10T02:34:48;94341.78;;;22.38;67.85
21011;BME280;10663;42.714;23.274;2023-06-10T02:36:21;94347.13;;;22.22;68.09
21011;BME280;10663;42.714;23.274;2023-06-10T02:37:54;94348.81;;;22.43;67.26
21011;BME280;10663;42.714;23.274;2023-06-10T02:39:25;94350.03;;;22.45;67.18
21011;BME280;10663;42.714;23.274;2023-06-10T02:40:56;94342.91;;;22.37;67.20
21011;BME280;10663;42.714;23.274;2023-06-10T02:42:27;94345.59;;;22.37;67.21
21011;BME280;10663;42.714;23.274;2023-06-10T02:43:58;94339.94;;;22.42;66.89
21011;BME280;10663;42.714;23.274;2023-06-10T02:45:29;94336.72;;;22.52;66.45
21011;BME280;10663;42.714;23.274;2023-06-10T02:47:01;94342.81;;;22.49;66.84
21011;BME280;10663;42.714;23.274;2023-06-10T02:48:33;94339.69;;;22.47;67.37
21011;BME280;10663;42.714;23.274;2023-06-10T02:50:11;94336.47;;;22.57;67.39
21011;BME280;10663;42.714;23.274;2023-06-10T02:51:50;94335.75;;;22.60;67.36
21011;BME280;10663;42.714;23.274;2023-06-10T02:53:24;94336.63;;;22.64;67.22
21011;BME280;10663;42.714;23.274;2023-06-10T02:55:00;94335.75;;;22.60;67.14
21011;BME280;10663;42.714;23.274;2023-06-10T02:56:31;94326.63;;;22.65;66.91
21011;BME280;10663;42.714;23.274;2023-06-10T02:58:06;94336.69;;;22.68;66.61
21011;BME280;10663;42.714;23.274;2023-06-10T02:59:37;94338.63;;;22.67;67.25
21011;BME280;10663;42.714;23.274;2023-06-10T03:01:09;94335.50;;;22.34;66.86
21011;BME280;10663;42.714;23.274;2023-06-10T03:03:07;94344.25;;;21.99;68.25
21011;BME280;10663;42.714;23.274;2023-06-10T03:04:47;94351.63;;;21.75;69.22
21011;BME280;10663;42.714;23.274;2023-06-10T03:06:21;94359.81;;;21.78;69.67
21011;BME280;10663;42.714;23.274;2023-06-10T03:07:54;94358.41;;;21.28;71.03
21011;BME280;10663;42.714;23.274;2023-06-10T03:09:27;94363.31;;;21.14;73.55
21011;BME280;10663;42.714;23.274;2023-06-10T03:11:02;94362.56;;;20.89;74.06
21011;BME280;10663;42.714;23.274;2023-06-10T03:12:34;94364.69;;;21.08;74.02
21011;BME280;10663;42.714;23.274;2023-06-10T03:14:04;94365.13;;;20.98;73.55
21011;BME280;10663;42.714;23.274;2023-06-10T03:15:36;94366.16;;;20.94;73.16
21011;BME280;10663;42.714;23.274;2023-06-10T03:17:11;94368.28;;;21.00;73.66
21011;BME280;10663;42.714;23.274;2023-06-10T03:18:45;94371.97;;;20.96;74.20
21011;BME280;10663;42.714;23.274;2023-06-10T03:20:16;94380.16;;;20.87;73.73
21011;BME280;10663;42.714;23.274;2023-06-10T03:21:50;94368.59;;;21.23;72.97
21011;BME280;10663;42.714;23.274;2023-06-10T03:23:25;94377.16;;;21.01;75.34
21011;BME280;10663;42.714;23.274;2023-06-10T03:24:57;94379.50;;;21.02;75.56
21011;BME280;10663;42.714;23.274;2023-06-10T03:26:31;94369.72;;;21.22;74.44
21011;BME280;10663;42.714;23.274;2023-06-10T03:28:03;94382.66;;;20.92;75.78
21011;BME280;10663;42.714;23.274;2023-06-10T03:29:34;94382.63;;;20.68;77.66
21011;BME280;10663;42.714;23.274;2023-06-10T03:31:05;94383.31;;;20.77;77.08
21011;BME280;10663;42.714;23.274;2023-06-10T03:32:36;94382.53;;;20.64;77.64
21011;BME280;10663;42.714;23.274;2023-06-10T03:34:09;94376.25;;;21.09;75.60
21011;BME280;10663;42.714;23.274;2023-06-10T03:35:40;94376.81;;;20.90;75.69
21011;BME280;10663;42.714;23.274;2023-06-10T03:37:12;94385.00;;;20.81;75.90
21011;BME280;10663;42.714;23.274;2023-06-10T03:38:42;94382.84;;;20.87;75.73
21011;BME280;10663;42.714;23.274;2023-06-10T03:40:13;94378.38;;;20.91;75.25
21011;BME280;10663;42.714;23.274;2023-06-10T03:41:47;94378.72;;;20.77;76.14
21011;BME280;10663;42.714;23.274;2023-06-10T03:43:18;94382.09;;;20.74;76.60
21011;BME280;10663;42.714;23.274;2023-06-10T03:44:49;94383.75;;;20.79;76.59
21011;BME280;10663;42.714;23.274;2023-06-10T03:46:19;94378.97;;;21.21;74.40
21011;BME280;10663;42.714;23.274;2023-06-10T03:47:50;94368.38;;;21.04;74.21
21011;BME280;10663;42.714;23.274;2023-06-10T03:49:26;94375.34;;;21.05;74.62
21011;BME280;10663;42.714;23.274;2023-06-10T03:51:01;94366.78;;;21.15;74.21
21011;BME280;10663;42.714;23.274;2023-06-10T03:52:32;94366.03;;;21.26;73.21
21011;BME280;10663;42.714;23.274;2023-06-10T03:54:03;94370.03;;;21.45;72.58
21011;BME280;10663;42.714;23.274;2023-06-10T03:55:34;94370.84;;;21.33;72.93
21011;BME280;10663;42.714;23.274;2023-06-10T03:57:05;94367.03;;;20.98;74.52
21011;BME280;10663;42.714;23.274;2023-06-10T03:58:36;94364.56;;;21.29;73.95
21011;BME280;10663;42.714;23.274;2023-06-10T04:00:09;94365.41;;;21.57;72.91
21011;BME280;10663;42.714;23.274;2023-06-10T04:01:45;94360.50;;;21.75;72.36
21011;BME280;10663;42.714;23.274;2023-06-10T04:03:16;94371.56;;;21.98;71.30
21011;BME280;10663;42.714;23.274;2023-06-10T04:04:50;94372.97;;;22.08;71.02
21011;BME280;10663;42.714;23.274;2023-06-10T04:06:21;94369.94;;;22.25;70.63
21011;BME280;10663;42.714;23.274;2023-06-10T04:07:53;94360.66;;;22.54;69.34
21011;BME280;10663;42.714;23.274;2023-06-10T04:09:23;94363.88;;;22.44;69.24
21011;BME280;10663;42.714;23.274;2023-06-10T04:10:54;94363.38;;;22.54;68.57
21011;BME280;10663;42.714;23.274;2023-06-10T04:12:25;94367.63;;;22.55;67.84
21011;BME280;10663;42.714;23.274;2023-06-10T04:13:55;94368.75;;;22.54;67.89
21011;BME280;10663;42.714;23.274;2023-06-10T04:15:26;94380.41;;;22.26;68.74
21011;BME280;10663;42.714;23.274;2023-06-10T04:16:57;94379.47;;;22.50;68.07
21011;BME280;10663;42.714;23.274;2023-06-10T04:18:28;94376.81;;;22.22;68.16
21011;BME280;10663;42.714;23.274;2023-06-10T04:20:01;94372.06;;;22.47;67.29
21011;BME280;10663;42.714;23.274;2023-06-10T04:21:34;94386.78;;;22.06;68.60
21011;BME280;10663;42.714;23.274;2023-06-10T04:23:06;94376.91;;;22.10;68.97
21011;BME280;10663;42.714;23.274;2023-06-10T04:24:37;94373.78;;;22.24;68.84
21011;BME280;10663;42.714;23.274;2023-06-10T04:26:08;94373.44;;;22.41;67.95
21011;BME280;10663;42.714;23.274;2023-06-10T04:27:40;94366.47;;;22.40;67.89
21011;BME280;10663;42.714;23.274;2023-06-10T04:29:10;94365.38;;;22.57;67.53
21011;BME280;10663;42.714;23.274;2023-06-10T04:30:41;94374.00;;;22.62;67.17
21011;BME280;10663;42.714;23.274;2023-06-10T04:32:12;94360.22;;;22.36;68.01
21011;BME280;10663;42.714;23.274;2023-06-10T04:33:43;94369.53;;;22.54;67.19
21011;BME280;10663;42.714;23.274;2023-06-10T04:35:15;94366.84;;;22.86;66.14
21011;BME280;10663;42.714;23.274;2023-06-10T04:36:46;94367.72;;;22.90;66.18
21011;BME280;10663;42.714;23.274;2023-06-10T04:38:17;94375.75;;;22.86;66.09
21011;BME280;10663;42.714;23.274;2023-06-10T04:39:48;94375.31;;;23.00;65.78
21011;BME280;10663;42.714;23.274;2023-06-10T04:41:19;94382.34;;;23.04;65.80
21011;BME280;10663;42.714;23.274;2023-06-10T04:42:50;94382.72;;;23.03;66.41
21011;BME280;10663;42.714;23.274;2023-06-10T04:44:24;94377.53;;;23.13;66.05
21011;BME280;10663;42.714;23.274;2023-06-10T04:45:56;94380.03;;;23.22;65.01
21011;BME280;10663;42.714;23.274;2023-06-10T04:47:27;94369.38;;;23.10;64.95
21011;BME280;10663;42.714;23.274;2023-06-10T04:48:59;94375.94;;;23.28;64.75
21011;BME280;10663;42.714;23.274;2023-06-10T04:50:30;94376.59;;;23.22;64.58
21011;BME280;10663;42.714;23.274;2023-06-10T04:52:03;94371.91;;;23.38;64.34
21011;BME280;10663;42.714;23.274;2023-06-10T04:53:39;94371.72;;;23.46;63.98
21011;BME280;10663;42.714;23.274;2023-06-10T04:55:10;94373.09;;;23.40;64.38
21011;BME280;10663;42.714;23.274;2023-06-10T04:56:41;94365.84;;;23.60;63.05
21011;BME280;10663;42.714;23.274;2023-06-10T04:58:12;94370.31;;;23.18;62.97
21011;BME280;10663;42.714;23.274;2023-06-10T04:59:43;94371.56;;;23.39;62.19
21011;BME280;10663;42.714;23.274;2023-06-10T05:01:14;94368.09;;;23.58;61.94
21011;BME280;10663;42.714;23.274;2023-06-10T05:02:45;94361.75;;;23.66;61.71
21011;BME280;10663;42.714;23.274;2023-06-10T05:04:20;94363.13;;;23.60;61.60
21011;BME280;10663;42.714;23.274;2023-06-10T05:05:51;94365.84;;;23.60;61.84
21011;BME280;10663;42.714;23.274;2023-06-10T05:07:21;94370.97;;;23.65;61.86
21011;BME280;10663;42.714;23.274;2023-06-10T05:08:52;94368.41;;;23.72;62.08
21011;BME280;10663;42.714;23.274;2023-06-10T05:10:23;94366.66;;;23.45;63.04
21011;BME280;10663;42.714;23.274;2023-06-10T05:11:54;94370.00;;;23.38;63.51
21011;BME280;10663;42.714;23.274;2023-06-10T05:13:26;94367.59;;;23.18;64.75
21011;BME280;10663;42.714;23.274;2023-06-10T05:14:58;94365.78;;;23.22;64.22
21011;BME280;10663;42.714;23.274;2023-06-10T05:16:29;94368.53;;;23.60;63.14
21011;BME280;10663;42.714;23.274;2023-06-10T05:17:59;94368.78;;;23.71;62.43
21011;BME280;10663;42.714;23.274;2023-06-10T05:19:33;94370.19;;;23.30;63.58
21011;BME280;10663;42.714;23.274;2023-06-10T05:21:04;94366.91;;;23.40;63.09
21011;BME280;10663;42.714;23.274;2023-06-10T05:22:35;94371.22;;;23.76;61.97
21011;BME280;10663;42.714;23.274;2023-06-10T05:24:06;94370.19;;;23.65;62.45
21011;BME280;10663;42.714;23.274;2023-06-10T05:25:38;94371.97;;;23.57;62.65
21011;BME280;10663;42.714;23.274;2023-06-10T05:27:09;94372.75;;;23.77;61.59
21011;BME280;10663;42.714;23.274;2023-06-10T05:28:40;94373.66;;;24.04;61.20
21011;BME280;10663;42.714;23.274;2023-06-10T05:30:11;94376.00;;;24.05;60.72
21011;BME280;10663;42.714;23.274;2023-06-10T05:31:42;94379.22;;;24.11;60.41
21011;BME280;10663;42.714;23.274;2023-06-10T05:33:13;94378.22;;;24.19;60.56
21011;BME280;10663;42.714;23.274;2023-06-10T05:34:44;94385.25;;;24.43;59.68
21011;BME280;10663;42.714;23.274;2023-06-10T05:36:16;94382.50;;;24.39;59.97
21011;BME280;10663;42.714;23.274;2023-06-10T05:37:47;94379.13;;;24.69;58.43
21011;BME280;10663;42.714;23.274;2023-06-10T05:39:18;94383.16;;;24.78;57.77
21011;BME280;10663;42.714;23.274;2023-06-10T05:40:49;94378.53;;;24.56;58.05
21011;BME280;10663;42.714;23.274;2023-06-10T05:42:21;94376.66;;;24.60;58.95
21011;BME280;10663;42.714;23.274;2023-06-10T05:43:52;94378.34;;;24.68;59.34
21011;BME280;10663;42.714;23.274;2023-06-10T05:45:23;94384.41;;;24.61;58.54
21011;BME280;10663;42.714;23.274;2023-06-10T05:46:54;94384.81;;;24.41;58.57
21011;BME280;10663;42.714;23.274;2023-06-10T05:48:24;94384.00;;;24.59;59.04
21011;BME280;10663;42.714;23.274;2023-06-10T05:49:55;94381.03;;;24.45;58.98
21011;BME280;10663;42.714;23.274;2023-06-10T05:51:26;94383.31;;;23.47;62.42
21011;BME280;10663;42.714;23.274;2023-06-10T05:52:58;94386.41;;;23.30;62.97
21011;BME280;10663;42.714;23.274;2023-06-10T05:54:30;94384.69;;;23.06;63.92
21011;BME280;10663;42.714;23.274;2023-06-10T05:56:00;94386.22;;;23.38;62.70
21011;BME280;10663;42.714;23.274;2023-06-10T05:57:31;94378.31;;;23.65;61.29
21011;BME280;10663;42.714;23.274;2023-06-10T05:59:04;94380.59;;;23.82;60.76
21011;BME280;10663;42.714;23.274;2023-06-10T06:00:36;94385.91;;;23.78;60.93
21011;BME280;10663;42.714;23.274;2023-06-10T06:02:06;94396.38;;;22.79;64.52
21011;BME280;10663;42.714;23.274;2023-06-10T06:03:37;94385.78;;;23.91;60.84
21011;BME280;10663;42.714;23.274;2023-06-10T06:05:09;94382.88;;;23.99;60.78
21011;BME280;10663;42.714;23.274;2023-06-10T06:06:40;94387.47;;;23.60;62.00
21011;BME280;10663;42.714;23.274;2023-06-10T06:08:11;94382.66;;;23.88;61.11
21011;BME280;10663;42.714;23.274;2023-06-10T06:09:50;94381.19;;;24.14;60.78
21011;BME280;10663;42.714;23.274;2023-06-10T06:11:21;94382.50;;;24.39;58.95
21011;BME280;10663;42.714;23.274;2023-06-10T06:12:52;94381.88;;;24.49;58.86
21011;BME280;10663;42.714;23.274;2023-06-10T06:14:23;94384.22;;;24.28;59.13
21011;BME280;10663;42.714;23.274;2023-06-10T06:15:54;94389.28;;;24.52;58.75
21011;BME280;10663;42.714;23.274;2023-06-10T06:17:31;94400.44;;;24.47;57.93
21011;BME280;10663;42.714;23.274;2023-06-10T06:19:01;94390.25;;;24.64;57.45
21011;BME280;10663;42.714;23.274;2023-06-10T06:20:32;94397.19;;;24.84;56.78
21011;BME280;10663;42.714;23.274;2023-06-10T06:22:03;94394.81;;;24.17;58.84
21011;BME280;10663;42.714;23.274;2023-06-10T06:23:34;94396.69;;;23.94;59.49
21011;BME280;10663;42.714;23.274;2023-06-10T06:25:07;94395.13;;;24.12;58.95
21011;BME280;10663;42.714;23.274;2023-06-10T06:26:38;94397.66;;;24.05;58.88
21011;BME280;10663;42.714;23.274;2023-06-10T06:28:09;94395.22;;;24.58;57.79
21011;BME280;10663;42.714;23.274;2023-06-10T06:29:40;94399.94;;;24.87;56.75
21011;BME280;10663;42.714;23.274;2023-06-10T06:31:11;94395.13;;;24.54;58.04
21011;BME280;10663;42.714;23.274;2023-06-10T06:32:42;94405.91;;;24.74;57.36
21011;BME280;10663;42.714;23.274;2023-06-10T06:34:13;94397.75;;;24.28;58.21
21011;BME280;10663;42.714;23.274;2023-06-10T06:35:44;94392.63;;;24.23;58.66
21011;BME280;10663;42.714;23.274;2023-06-10T06:37:15;94393.31;;;24.62;57.46
21011;BME280;10663;42.714;23.274;2023-06-10T06:38:48;94396.06;;;24.85;55.80
21011;BME280;10663;42.714;23.274;2023-06-10T06:40:19;94385.50;;;24.80;56.54
21011;BME280;10663;42.714;23.274;2023-06-10T06:41:51;94393.72;;;24.41;58.17
21011;BME280;10663;42.714;23.274;2023-06-10T06:43:25;94384.31;;;25.00;56.46
21011;BME280;10663;42.714;23.274;2023-06-10T06:45:22;94388.06;;;25.18;55.87
21011;BME280;10663;42.714;23.274;2023-06-10T06:46:52;94378.91;;;25.00;56.97
21011;BME280;10663;42.714;23.274;2023-06-10T06:48:24;94376.59;;;24.79;57.95
21011;BME280;10663;42.714;23.274;2023-06-10T06:49:54;94377.84;;;25.08;56.97
21011;BME280;10663;42.714;23.274;2023-06-10T06:51:25;94379.06;;;25.37;56.27
21011;BME280;10663;42.714;23.274;2023-06-10T06:52:56;94369.66;;;25.57;55.20
21011;BME280;10663;42.714;23.274;2023-06-10T06:54:27;94371.13;;;26.15;53.48
21011;BME280;10663;42.714;23.274;2023-06-10T06:55:58;94375.22;;;25.38;55.90
21011;BME280;10663;42.714;23.274;2023-06-10T06:57:29;94369.34;;;25.62;55.26
21011;BME280;10663;42.714;23.274;2023-06-10T06:59:00;94373.66;;;25.97;54.07
21011;BME280;10663;42.714;23.274;2023-06-10T07:00:32;94368.72;;;26.06;53.45
21011;BME280;10663;42.714;23.274;2023-06-10T07:02:04;94371.28;;;25.09;54.95
21011;BME280;10663;42.714;23.274;2023-06-10T07:03:34;94362.38;;;25.35;54.96
21011;BME280;10663;42.714;23.274;2023-06-10T07:05:06;94369.25;;;25.55;54.18
21011;BME280;10663;42.714;23.274;2023-06-10T07:06:39;94374.00;;;25.35;54.38
21011;BME280;10663;42.714;23.274;2023-06-10T07:08:09;94369.13;;;26.08;52.06
21011;BME280;10663;42.714;23.274;2023-06-10T07:09:42;94371.47;;;25.50;53.49
21011;BME280;10663;42.714;23.274;2023-06-10T07:11:13;94371.03;;;25.18;54.19
21011;BME280;10663;42.714;23.274;2023-06-10T07:12:44;94369.13;;;24.73;57.09
21011;BME280;10663;42.714;23.274;2023-06-10T07:14:15;94364.38;;;25.98;53.80
21011;BME280;10663;42.714;23.274;2023-06-10T07:15:46;94352.03;;;26.81;49.78
21011;BME280;10663;42.714;23.274;2023-06-10T07:17:18;94354.94;;;26.59;49.53
21011;BME280;10663;42.714;23.274;2023-06-10T07:18:53;94359.31;;;25.96;48.79
21011;BME280;10663;42.714;23.274;2023-06-10T07:20:25;94353.28;;;26.47;47.76
21011;BME280;10663;42.714;23.274;2023-06-10T07:21:56;94345.72;;;26.70;47.63
21011;BME280;10663;42.714;23.274;2023-06-10T07:23:26;94353.03;;;26.63;47.54
21011;BME280;10663;42.714;23.274;2023-06-10T07:24:57;94344.78;;;26.52;46.56
21011;BME280;10663;42.714;23.274;2023-06-10T07:26:28;94356.63;;;26.00;46.26
21011;BME280;10663;42.714;23.274;2023-06-10T07:27:59;94352.91;;;26.49;44.83
21011;BME280;10663;42.714;23.274;2023-06-10T07:29:30;94356.31;;;26.42;44.56
21011;BME280;10663;42.714;23.274;2023-06-10T07:31:01;94343.31;;;26.62;44.55
21011;BME280;10663;42.714;23.274;2023-06-10T07:32:32;94353.50;;;25.98;45.52
21011;BME280;10663;42.714;23.274;2023-06-10T07:34:04;94355.03;;;25.35;46.65
21011;BME280;10663;42.714;23.274;2023-06-10T07:35:35;94351.94;;;25.97;45.97
21011;BME280;10663;42.714;23.274;2023-06-10T07:37:05;94357.72;;;25.92;47.02
21011;BME280;10663;42.714;23.274;2023-06-10T07:38:36;94360.91;;;26.31;45.75
21011;BME280;10663;42.714;23.274;2023-06-10T07:40:08;94347.13;;;26.54;45.55
21011;BME280;10663;42.714;23.274;2023-06-10T07:41:39;94341.59;;;26.87;44.36
21011;BME280;10663;42.714;23.274;2023-06-10T07:43:10;94344.03;;;26.99;43.14
21011;BME280;10663;42.714;23.274;2023-06-10T07:44:41;94340.50;;;26.92;43.05
21011;BME280;10663;42.714;23.274;2023-06-10T07:46:12;94338.75;;;27.86;42.55
21011;BME280;10663;42.714;23.274;2023-06-10T07:47:43;94339.44;;;27.65;43.08
21011;BME280;10663;42.714;23.274;2023-06-10T07:49:13;94341.78;;;27.77;41.46
21011;BME280;10663;42.714;23.274;2023-06-10T07:50:44;94340.75;;;28.03;40.61
21011;BME280;10663;42.714;23.274;2023-06-10T07:52:15;94342.97;;;27.76;42.05
21011;BME280;10663;42.714;23.274;2023-06-10T07:53:46;94342.88;;;27.00;43.85
21011;BME280;10663;42.714;23.274;2023-06-10T07:55:19;94341.13;;;26.74;44.57
21011;BME280;10663;42.714;23.274;2023-06-10T07:56:50;94341.53;;;26.80;44.31
21011;BME280;10663;42.714;23.274;2023-06-10T07:58:23;94345.03;;;26.36;45.20
21011;BME280;10663;42.714;23.274;2023-06-10T07:59:54;94341.06;;;26.71;45.10
21011;BME280;10663;42.714;23.274;2023-06-10T08:01:25;94341.84;;;27.19;44.97
21011;BME280;10663;42.714;23.274;2023-06-10T08:02:56;94332.44;;;27.68;44.61
21011;BME280;10663;42.714;23.274;2023-06-10T08:04:28;94327.63;;;28.30;43.48